createdAt,value
2022-12-28T00:01:46.530Z,85.91
2022-12-28T00:04:14.392Z,84.44
2022-12-28T00:06:42.235Z,85.45
2022-12-28T00:09:10.602Z,85.23
2022-12-28T00:11:37.094Z,85.18
2022-12-28T00:14:04.088Z,85.77
2022-12-28T00:16:35.926Z,85.56
2022-12-28T00:19:05.460Z,86.48
2022-12-28T00:21:34.467Z,84.79
2022-12-28T00:24:09.238Z,84.24
2022-12-28T00:26:36.436Z,84.75
2022-12-28T00:29:05.752Z,85.89
2022-12-28T00:31:34.380Z,84.21
2022-12-28T00:34:02.324Z,84.87
2022-12-28T00:37:09.427Z,85.22
2022-12-28T00:39:15.287Z,84.50
2022-12-28T00:41:41.764Z,85.31
2022-12-28T00:44:08.267Z,85.57
2022-12-28T00:46:35.088Z,85.01
2022-12-28T00:49:01.556Z,83.93
2022-12-28T00:51:28.074Z,83.55
2022-12-28T00:53:54.703Z,84.68
2022-12-28T00:56:22.454Z,84.28
2022-12-28T00:58:49.257Z,84.86
2022-12-28T01:01:21.471Z,82.94
2022-12-28T01:03:48.353Z,84.46
2022-12-28T01:06:16.744Z,83.83
2022-12-28T01:08:43.638Z,83.17
2022-12-28T01:11:18.816Z,82.82
2022-12-28T01:13:53.958Z,83.87
2022-12-28T01:16:26.206Z,81.59
2022-12-28T01:18:54.815Z,82.59
2022-12-28T01:21:26.027Z,82.61
2022-12-28T01:23:57.903Z,82.52
2022-12-28T01:26:25.495Z,82.26
2022-12-28T01:28:52.011Z,81.97
2022-12-28T01:31:20.186Z,81.76
2022-12-28T01:33:47.610Z,81.65
2022-12-28T01:36:15.803Z,80.08
2022-12-28T01:38:42.997Z,80.51
2022-12-28T01:41:10.891Z,81.23
2022-12-28T01:43:52.786Z,79.76
2022-12-28T01:46:25.352Z,81.46
2022-12-28T01:49:00.034Z,80.50
2022-12-28T01:51:29.461Z,81.63
2022-12-28T01:53:56.662Z,80.95
2022-12-28T01:56:23.312Z,80.58
2022-12-28T01:58:50.089Z,80.41
2022-12-28T02:01:17.570Z,80.51
2022-12-28T02:03:44.225Z,80.97
2022-12-28T02:06:11.880Z,83.00
2022-12-28T02:08:56.605Z,82.41
2022-12-28T02:11:23.398Z,82.53
2022-12-28T02:13:52.001Z,81.83
2022-12-28T02:16:19.268Z,83.76
2022-12-28T02:18:46.554Z,84.99
2022-12-28T02:21:25.562Z,84.30
2022-12-28T02:24:10.856Z,84.66
2022-12-28T02:26:49.580Z,84.13
2022-12-28T02:29:23.099Z,84.62
2022-12-28T02:32:11.389Z,85.06
2022-12-28T02:34:48.489Z,85.79
2022-12-28T02:37:52.279Z,85.20
2022-12-28T02:40:22.687Z,85.41
2022-12-28T02:42:49.793Z,85.22
2022-12-28T02:46:02.143Z,85.74
2022-12-28T02:48:57.539Z,85.43
2022-12-28T02:51:39.505Z,84.79
2022-12-28T02:54:43.520Z,85.70
2022-12-28T02:57:16.095Z,85.93
2022-12-28T02:59:56.272Z,85.25
2022-12-28T03:02:41.556Z,86.12
2022-12-28T03:05:15.297Z,86.35
2022-12-28T03:08:20.127Z,85.31
2022-12-28T03:10:53.027Z,86.02
2022-12-28T03:13:43.184Z,84.96
2022-12-28T03:16:20.670Z,87.11
2022-12-28T03:19:10.521Z,86.12
2022-12-28T03:21:56.194Z,85.40
2022-12-28T03:24:41.773Z,87.73
2022-12-28T03:27:29.890Z,86.56
2022-12-28T03:30:20.535Z,86.71
2022-12-28T03:32:47.804Z,86.35
2022-12-28T03:35:17.157Z,86.65
2022-12-28T03:38:15.367Z,88.01
2022-12-28T03:40:49.879Z,86.96
2022-12-28T03:43:43.175Z,85.58
2022-12-28T03:46:21.389Z,85.98
2022-12-28T03:48:48.978Z,88.39
2022-12-28T03:51:24.567Z,87.82
2022-12-28T03:53:51.483Z,88.46
2022-12-28T03:56:21.058Z,88.84
2022-12-28T03:58:48.042Z,87.99
2022-12-28T04:01:15.652Z,88.55
2022-12-28T04:03:42.538Z,87.04
2022-12-28T04:06:13.133Z,88.30
2022-12-28T04:08:39.811Z,86.46
2022-12-28T04:11:06.285Z,88.18
2022-12-28T04:13:32.998Z,88.61
2022-12-28T04:16:03.050Z,87.34
2022-12-28T04:18:31.777Z,87.19
2022-12-28T04:20:58.312Z,88.54
2022-12-28T04:23:24.973Z,86.67
2022-12-28T04:26:02.138Z,86.57
2022-12-28T04:28:29.188Z,86.81
2022-12-28T04:30:56.680Z,87.38
2022-12-28T04:33:24.167Z,87.17
2022-12-28T04:35:51.499Z,88.73
2022-12-28T04:38:18.534Z,86.54
2022-12-28T04:40:45.322Z,86.87
2022-12-28T04:43:11.827Z,86.23
2022-12-28T04:45:38.434Z,88.37
2022-12-28T04:48:05.325Z,87.10
2022-12-28T04:50:31.829Z,87.16
2022-12-28T04:52:58.821Z,87.82
2022-12-28T04:55:32.645Z,90.20
2022-12-28T04:58:03.764Z,90.38
2022-12-28T05:00:30.741Z,88.66
2022-12-28T05:03:00.834Z,89.68
2022-12-28T05:05:28.682Z,89.09
2022-12-28T05:07:55.993Z,88.01
2022-12-28T05:10:22.528Z,88.65
2022-12-28T05:12:48.974Z,89.17
2022-12-28T05:15:15.568Z,88.33
2022-12-28T05:17:42.039Z,89.17
2022-12-28T05:20:09.052Z,89.85
2022-12-28T05:22:40.742Z,88.41
2022-12-28T05:25:07.910Z,88.52
2022-12-28T05:27:34.342Z,89.58
2022-12-28T05:30:00.829Z,92.22
2022-12-28T05:32:27.254Z,90.18
2022-12-28T05:34:53.730Z,89.48
2022-12-28T05:37:22.340Z,89.08
2022-12-28T05:39:48.956Z,89.36
2022-12-28T05:42:15.408Z,90.30
2022-12-28T05:44:42.044Z,90.56
2022-12-28T05:47:08.527Z,91.28
2022-12-28T05:49:35.076Z,89.68
2022-12-28T05:52:01.724Z,89.82
2022-12-28T05:54:28.197Z,91.65
2022-12-28T05:56:54.696Z,90.35
2022-12-28T05:59:21.946Z,91.10
2022-12-28T06:01:48.626Z,90.29
2022-12-28T06:04:17.595Z,89.15
2022-12-28T06:06:44.756Z,89.33
2022-12-28T06:09:11.333Z,91.52
2022-12-28T06:11:37.845Z,90.74
2022-12-28T06:14:05.939Z,91.35
2022-12-28T06:16:35.695Z,89.75
2022-12-28T06:19:10.393Z,89.90
2022-12-28T06:21:39.066Z,91.64
2022-12-28T06:24:06.487Z,90.93
2022-12-28T06:26:35.120Z,90.56
2022-12-28T06:29:03.983Z,90.38
2022-12-28T06:31:36.192Z,91.85
2022-12-28T06:34:04.616Z,90.02
2022-12-28T06:36:39.567Z,90.29
2022-12-28T06:39:08.376Z,89.96
2022-12-28T06:41:35.258Z,90.93
2022-12-28T06:44:01.994Z,91.33
2022-12-28T06:46:30.546Z,89.67
2022-12-28T06:48:57.689Z,89.05
2022-12-28T06:51:27.412Z,90.89
2022-12-28T06:53:54.777Z,89.48
2022-12-28T06:56:23.852Z,91.44
2022-12-28T06:58:53.487Z,89.30
2022-12-28T07:01:26.585Z,89.46
2022-12-28T07:03:55.423Z,91.90
2022-12-28T07:06:24.468Z,90.67
2022-12-28T07:08:51.359Z,89.58
2022-12-28T07:11:22.130Z,90.63
2022-12-28T07:13:49.008Z,89.99
2022-12-28T07:16:25.725Z,90.01
2022-12-28T07:18:52.566Z,90.16
2022-12-28T07:21:25.837Z,91.24
2022-12-28T07:23:53.742Z,90.43
2022-12-28T07:26:22.257Z,91.48
2022-12-28T07:28:50.781Z,89.40
2022-12-28T07:31:28.322Z,90.38
2022-12-28T07:33:55.976Z,89.20
2022-12-28T07:36:23.947Z,91.44
2022-12-28T07:38:50.420Z,91.28
2022-12-28T07:41:19.583Z,90.93
2022-12-28T07:43:46.215Z,91.20
2022-12-28T07:46:24.354Z,92.08
2022-12-28T07:48:51.607Z,91.49
2022-12-28T07:51:35.484Z,90.42
2022-12-28T07:54:02.608Z,91.43
2022-12-28T07:56:29.995Z,90.30
2022-12-28T07:58:59.037Z,91.63
2022-12-28T08:01:28.348Z,91.81
2022-12-28T08:03:59.879Z,92.13
2022-12-28T08:06:27.896Z,94.10
2022-12-28T08:08:56.511Z,92.39
2022-12-28T08:11:24.830Z,91.58
2022-12-28T08:13:52.994Z,90.58
2022-12-28T08:16:20.731Z,93.73
2022-12-28T08:18:48.144Z,92.60
2022-12-28T08:21:15.918Z,94.15
2022-12-28T08:23:42.478Z,93.36
2022-12-28T08:26:23.707Z,92.23
2022-12-28T08:28:52.453Z,89.92
2022-12-28T08:31:24.180Z,91.48
2022-12-28T08:33:51.283Z,92.92
2022-12-28T08:36:17.767Z,91.69
2022-12-28T08:38:45.459Z,93.13
2022-12-28T08:41:19.433Z,91.69
2022-12-28T08:43:46.339Z,92.86
2022-12-28T08:46:16.575Z,92.95
2022-12-28T08:48:43.563Z,93.82
2022-12-28T08:51:12.361Z,92.83
2022-12-28T08:53:39.361Z,92.77
2022-12-28T08:56:23.595Z,91.39
2022-12-28T08:58:50.256Z,91.00
2022-12-28T09:01:19.385Z,90.58
2022-12-28T09:03:48.127Z,90.65
2022-12-28T09:06:17.195Z,90.62
2022-12-28T09:08:56.761Z,91.21
2022-12-28T09:11:29.638Z,91.87
2022-12-28T09:13:56.217Z,92.13
2022-12-28T09:16:25.630Z,93.38
2022-12-28T09:18:57.922Z,91.73
2022-12-28T09:21:27.037Z,90.98
2022-12-28T09:23:54.533Z,93.30
2022-12-28T09:26:25.563Z,90.92
2022-12-28T09:28:56.906Z,93.73
2022-12-28T09:31:25.566Z,93.42
2022-12-28T09:36:50.940Z,93.96
2022-12-28T09:39:19.659Z,91.59
2022-12-28T09:41:56.319Z,91.78
2022-12-28T09:44:35.380Z,91.58
2022-12-28T09:47:20.344Z,92.85
2022-12-28T09:50:00.335Z,92.00
2022-12-28T09:52:33.265Z,89.59
2022-12-28T09:55:15.075Z,88.16
2022-12-28T09:57:47.895Z,92.84
2022-12-28T10:00:42.804Z,90.47
2022-12-28T10:03:18.565Z,89.81
2022-12-28T10:05:45.537Z,90.76
2022-12-28T10:08:15.875Z,90.88
2022-12-28T10:10:48.369Z,90.96
2022-12-28T10:13:53.525Z,91.24
2022-12-28T10:16:19.897Z,92.78
2022-12-28T10:18:47.864Z,89.54
2022-12-28T10:21:16.339Z,92.43
2022-12-28T10:24:12.120Z,91.36
2022-12-28T10:26:30.183Z,91.65
2022-12-28T10:29:00.651Z,89.90
2022-12-28T10:31:59.225Z,88.76
2022-12-28T10:34:25.938Z,89.04
2022-12-28T10:36:53.199Z,89.84
2022-12-28T10:39:28.483Z,90.69
2022-12-28T10:41:56.232Z,91.25
2022-12-28T10:47:28.002Z,90.99
2022-12-28T10:52:41.275Z,90.76
2022-12-28T10:55:29.975Z,90.49
2022-12-28T10:58:27.875Z,92.35
2022-12-28T11:00:47.122Z,89.28
2022-12-28T11:03:19.176Z,90.99
2022-12-28T11:03:21.121Z,89.77
2022-12-28T11:05:45.736Z,92.32
2022-12-28T11:08:14.600Z,89.79
2022-12-28T11:10:41.279Z,89.40
2022-12-28T11:13:22.010Z,89.11
2022-12-28T11:15:48.968Z,89.86
2022-12-28T11:18:17.052Z,88.73
2022-12-28T11:20:46.571Z,88.88
2022-12-28T11:23:22.236Z,91.35
2022-12-28T11:25:55.176Z,91.67
2022-12-28T11:28:22.931Z,89.38
2022-12-28T11:30:51.154Z,89.27
2022-12-28T11:33:46.042Z,91.98
2022-12-28T11:36:24.713Z,89.04
2022-12-28T11:38:53.225Z,90.18
2022-12-28T11:41:31.967Z,88.36
2022-12-28T11:44:02.822Z,90.94
2022-12-28T11:46:35.611Z,89.72
2022-12-28T11:49:24.984Z,90.12
2022-12-28T11:52:17.256Z,89.18
2022-12-28T11:55:21.929Z,89.97
2022-12-28T11:57:48.397Z,88.01
2022-12-28T12:00:22.696Z,87.95
2022-12-28T12:02:58.129Z,87.79
2022-12-28T12:05:37.166Z,89.98
2022-12-28T12:08:14.226Z,89.45
2022-12-28T12:10:49.200Z,88.20
2022-12-28T12:13:27.947Z,87.81
2022-12-28T12:15:57.993Z,88.28
2022-12-28T12:18:26.504Z,86.28
2022-12-28T12:21:03.074Z,86.04
2022-12-28T12:23:39.464Z,86.66
2022-12-28T12:26:29.573Z,88.34
2022-12-28T12:28:59.964Z,87.86
2022-12-28T12:31:50.355Z,87.02
2022-12-28T12:34:28.304Z,88.23
2022-12-28T12:37:28.914Z,89.87
2022-12-28T12:40:05.575Z,89.02
2022-12-28T12:43:09.247Z,86.98
2022-12-28T12:46:07.894Z,89.72
2022-12-28T12:48:59.077Z,87.98
2022-12-28T12:52:03.227Z,89.02
2022-12-28T12:54:41.052Z,90.17
2022-12-28T12:57:15.236Z,88.38
2022-12-28T13:00:00.575Z,88.50
2022-12-28T13:02:30.202Z,89.09
2022-12-28T13:04:56.977Z,87.85
2022-12-28T13:07:26.243Z,87.97
2022-12-28T13:09:54.935Z,89.27
2022-12-28T13:12:21.848Z,89.51
2022-12-28T13:14:57.384Z,88.22
2022-12-28T13:17:24.321Z,89.55
2022-12-28T13:19:50.851Z,88.60
2022-12-28T13:22:29.948Z,87.63
2022-12-28T13:24:56.676Z,88.34
2022-12-28T13:27:23.557Z,87.31
2022-12-28T13:29:54.602Z,88.75
2022-12-28T13:32:32.738Z,88.03
2022-12-28T13:35:02.871Z,88.62
2022-12-28T13:37:29.577Z,88.45
2022-12-28T13:40:15.561Z,90.44
2022-12-28T13:42:49.299Z,88.09
2022-12-28T13:45:16.689Z,90.22
2022-12-28T13:47:47.327Z,87.23
2022-12-28T13:50:17.597Z,88.52
2022-12-28T13:53:07.189Z,89.23
2022-12-28T13:55:40.563Z,88.08
2022-12-28T13:58:19.537Z,90.03
2022-12-28T14:00:47.589Z,87.47
2022-12-28T14:03:15.180Z,90.26
2022-12-28T14:05:47.499Z,89.17
2022-12-28T14:08:14.618Z,87.13
2022-12-28T14:10:41.937Z,87.57
2022-12-28T14:13:09.850Z,89.47
2022-12-28T14:15:41.037Z,89.26
2022-12-28T14:18:08.502Z,92.51
2022-12-28T14:20:52.932Z,90.33
2022-12-28T14:23:45.880Z,90.93
2022-12-28T14:26:21.003Z,91.38
2022-12-28T14:28:50.393Z,87.91
2022-12-28T14:31:22.120Z,89.87
2022-12-28T14:34:17.493Z,87.58
2022-12-28T14:36:51.020Z,88.73
2022-12-28T14:39:28.871Z,89.58
2022-12-28T14:41:55.479Z,90.27
2022-12-28T14:44:27.784Z,89.40
2022-12-28T14:46:54.907Z,89.61
2022-12-28T14:49:30.694Z,90.53
2022-12-28T14:52:09.461Z,88.95
2022-12-28T14:54:46.463Z,89.11
2022-12-28T14:57:43.673Z,90.67
2022-12-28T15:00:16.447Z,88.19
2022-12-28T15:02:43.330Z,89.25
2022-12-28T15:06:04.426Z,90.57
2022-12-28T15:08:30.909Z,90.37
2022-12-28T15:10:58.929Z,89.23
2022-12-28T15:13:26.795Z,89.87
2022-12-28T15:16:01.509Z,90.37
2022-12-28T15:18:29.340Z,89.84
2022-12-28T15:20:56.837Z,89.52
2022-12-28T15:23:23.690Z,90.49
2022-12-28T15:25:51.258Z,91.00
2022-12-28T15:28:20.832Z,90.68
2022-12-28T15:30:47.340Z,90.34
2022-12-28T15:33:13.792Z,92.37
2022-12-28T15:35:40.327Z,91.49
2022-12-28T15:38:06.799Z,92.12
2022-12-28T15:40:33.394Z,91.33
2022-12-28T15:42:59.868Z,91.85
2022-12-28T15:45:26.649Z,92.11
2022-12-28T15:47:54.413Z,91.35
2022-12-28T15:50:21.372Z,89.78
2022-12-28T15:52:49.941Z,91.50
2022-12-28T15:55:17.706Z,91.05
2022-12-28T15:57:49.342Z,90.23
2022-12-28T16:00:18.986Z,91.08
2022-12-28T16:02:46.389Z,92.39
2022-12-28T16:05:13.411Z,92.49
2022-12-28T16:07:39.918Z,93.07
2022-12-28T16:10:06.998Z,91.88
2022-12-28T16:12:33.589Z,92.41
2022-12-28T16:15:00.086Z,91.08
2022-12-28T16:17:26.592Z,91.25
2022-12-28T16:19:53.050Z,91.01
2022-12-28T16:22:19.584Z,92.01
2022-12-28T16:24:46.075Z,93.30
2022-12-28T16:27:12.641Z,92.73
2022-12-28T16:29:39.113Z,93.49
2022-12-28T16:32:05.902Z,92.84
2022-12-28T16:34:32.498Z,92.95
2022-12-28T16:36:59.676Z,93.65
2022-12-28T16:39:29.894Z,91.83
2022-12-28T16:41:58.094Z,92.65
2022-12-28T16:44:27.286Z,92.03
2022-12-28T16:46:59.025Z,94.47
2022-12-28T16:49:26.754Z,95.55
2022-12-28T16:51:53.283Z,93.70
2022-12-28T16:54:21.913Z,91.71
2022-12-28T16:56:49.198Z,91.16
2022-12-28T16:59:18.220Z,91.47
2022-12-28T17:01:45.180Z,90.87
2022-12-28T17:04:12.452Z,91.85
2022-12-28T17:06:40.433Z,91.80
2022-12-28T17:09:07.601Z,91.16
2022-12-28T17:11:34.152Z,90.48
2022-12-28T17:14:02.530Z,91.75
2022-12-28T17:16:29.198Z,90.76
2022-12-28T17:18:56.908Z,91.98
2022-12-28T17:21:23.407Z,91.61
2022-12-28T17:23:49.884Z,89.91
2022-12-28T17:26:16.386Z,87.81
2022-12-28T17:28:42.862Z,90.96
2022-12-28T17:31:14.182Z,89.30
2022-12-28T17:33:48.196Z,91.23
2022-12-28T17:36:15.139Z,88.97
2022-12-28T17:38:42.020Z,89.00
2022-12-28T17:41:15.764Z,89.63
2022-12-28T17:43:49.370Z,87.94
2022-12-28T17:46:16.003Z,89.42
2022-12-28T17:48:42.933Z,88.41
2022-12-28T17:51:11.478Z,87.93
2022-12-28T17:53:39.174Z,88.16
2022-12-28T17:56:08.641Z,88.39
2022-12-28T17:58:35.236Z,89.21
2022-12-28T18:01:01.885Z,90.74
2022-12-28T18:03:33.464Z,89.77
2022-12-28T18:06:00.562Z,88.99
2022-12-28T18:08:27.081Z,89.48
2022-12-28T18:10:53.677Z,88.39
2022-12-28T18:13:20.389Z,87.52
2022-12-28T18:15:47.257Z,87.00
2022-12-28T18:18:15.725Z,88.26
2022-12-28T18:20:42.284Z,87.63
2022-12-28T18:23:10.088Z,87.94
2022-12-28T18:25:37.514Z,87.75
2022-12-28T18:28:04.216Z,89.80
2022-12-28T18:30:30.744Z,89.89
2022-12-28T18:32:57.245Z,89.60
2022-12-28T18:35:26.716Z,90.70
2022-12-28T18:37:53.631Z,91.06
2022-12-28T18:40:20.123Z,92.74
2022-12-28T18:42:46.921Z,91.04
2022-12-28T18:45:13.404Z,91.11
2022-12-28T18:47:39.968Z,91.70
2022-12-28T18:50:07.047Z,90.06
2022-12-28T18:52:36.052Z,92.80
2022-12-28T18:55:03.278Z,92.68
2022-12-28T18:57:29.953Z,91.61
2022-12-28T18:59:56.488Z,92.36
2022-12-28T19:02:23.209Z,91.60
2022-12-28T19:04:52.728Z,91.06
2022-12-28T19:07:19.543Z,90.32
2022-12-28T19:10:12.035Z,90.40
2022-12-28T19:12:40.528Z,90.87
2022-12-28T19:15:07.653Z,90.36
2022-12-28T19:17:34.169Z,90.21
2022-12-28T19:20:00.652Z,90.30
2022-12-28T19:22:27.139Z,91.48
2022-12-28T19:24:53.694Z,90.91
2022-12-28T19:27:20.418Z,91.65
2022-12-28T19:29:47.062Z,91.06
2022-12-28T19:32:13.511Z,90.48
2022-12-28T19:34:40.032Z,91.62
2022-12-28T19:37:06.469Z,91.11
2022-12-28T19:39:32.959Z,90.87
2022-12-28T19:41:59.428Z,90.44
2022-12-28T19:44:25.939Z,90.87
2022-12-28T19:46:54.014Z,89.21
2022-12-28T19:49:20.646Z,88.81
2022-12-28T19:51:47.301Z,89.63
2022-12-28T19:54:14.001Z,88.60
2022-12-28T19:56:40.512Z,88.93
2022-12-28T19:59:07.424Z,89.39
2022-12-28T20:01:35.385Z,88.80
2022-12-28T20:04:05.765Z,89.12
2022-12-28T20:06:37.553Z,90.33
2022-12-28T20:09:04.021Z,89.43
2022-12-28T20:11:30.585Z,89.54
2022-12-28T20:13:59.563Z,88.93
2022-12-28T20:16:28.832Z,90.82
2022-12-28T20:18:56.203Z,90.34
2022-12-28T20:21:24.377Z,90.15
2022-12-28T20:23:52.043Z,91.34
2022-12-28T20:26:19.379Z,90.62
2022-12-28T20:28:46.092Z,89.33
2022-12-28T20:31:16.661Z,87.80
2022-12-28T20:33:43.749Z,91.72
2022-12-28T20:36:15.733Z,91.81
2022-12-28T20:38:42.680Z,90.43
2022-12-28T20:41:34.604Z,90.58
2022-12-28T20:44:04.454Z,91.78
2022-12-28T20:46:30.944Z,89.55
2022-12-28T20:48:59.065Z,89.20
2022-12-28T20:51:25.958Z,89.78
2022-12-28T20:53:52.467Z,90.15
2022-12-28T20:56:19.088Z,91.17
2022-12-28T20:58:45.750Z,90.65
2022-12-28T21:01:14.290Z,90.65
2022-12-28T21:03:40.978Z,88.84
2022-12-28T21:06:07.949Z,87.68
2022-12-28T21:08:35.126Z,89.48
2022-12-28T21:11:02.150Z,89.21
2022-12-28T21:13:28.917Z,88.37
2022-12-28T21:15:55.839Z,89.58
2022-12-28T21:18:22.519Z,89.85
2022-12-28T21:20:50.925Z,90.87
2022-12-28T21:23:18.608Z,89.81
2022-12-28T21:25:45.264Z,91.26
2022-12-28T21:28:11.740Z,89.23
2022-12-28T21:30:38.719Z,90.83
2022-12-28T21:33:05.394Z,90.41
2022-12-28T21:35:34.301Z,90.11
2022-12-28T21:38:01.340Z,91.15
2022-12-28T21:40:27.959Z,91.13
2022-12-28T21:42:54.415Z,91.02
2022-12-28T21:45:21.023Z,90.73
2022-12-28T21:47:47.501Z,89.52
2022-12-28T21:50:14.021Z,90.15
2022-12-28T21:52:40.480Z,89.78
2022-12-28T21:55:26.088Z,91.14
2022-12-28T21:57:53.679Z,90.96
2022-12-28T22:00:39.259Z,92.64
2022-12-28T22:03:24.467Z,89.18
2022-12-28T22:06:02.956Z,91.46
2022-12-28T22:08:49.024Z,91.73
2022-12-28T22:11:34.152Z,90.77
2022-12-28T22:14:00.964Z,91.28
2022-12-28T22:16:27.568Z,91.58
2022-12-28T22:19:02.064Z,91.03
2022-12-28T22:21:29.254Z,89.87
2022-12-28T22:23:55.713Z,89.62
2022-12-28T22:26:22.220Z,91.28
2022-12-28T22:28:48.747Z,89.76
2022-12-28T22:31:15.430Z,91.33
2022-12-28T22:33:42.969Z,90.08
2022-12-28T22:36:13.943Z,91.04
2022-12-28T22:38:40.596Z,89.72
2022-12-28T22:41:07.599Z,91.23
2022-12-28T22:43:34.128Z,91.06
2022-12-28T22:46:11.926Z,90.21
2022-12-28T22:48:38.770Z,88.46
2022-12-28T22:51:07.323Z,90.82
2022-12-28T22:53:34.511Z,91.02
2022-12-28T22:56:02.455Z,91.65
2022-12-28T22:58:29.657Z,90.19
2022-12-28T23:01:06.134Z,90.59
2022-12-28T23:03:32.757Z,91.20
2022-12-28T23:05:59.472Z,90.80
2022-12-28T23:08:25.926Z,90.91
2022-12-28T23:11:00.380Z,92.08
2022-12-28T23:13:29.133Z,91.71
2022-12-28T23:15:58.784Z,93.11
2022-12-28T23:18:43.958Z,92.91
2022-12-28T23:21:34.812Z,93.60
2022-12-28T23:24:21.399Z,91.42
2022-12-28T23:27:06.614Z,93.67
2022-12-28T23:29:33.635Z,92.65
2022-12-28T23:32:01.481Z,90.54
2022-12-28T23:34:28.148Z,92.43
2022-12-28T23:36:54.658Z,92.60
2022-12-28T23:39:22.858Z,90.72
2022-12-28T23:41:53.789Z,93.15
2022-12-28T23:44:23.809Z,92.56
2022-12-28T23:46:55.247Z,92.88
2022-12-28T23:49:24.910Z,93.29
2022-12-28T23:51:51.386Z,91.81
2022-12-28T23:54:19.457Z,90.77
2022-12-28T23:56:47.171Z,90.74
2022-12-28T23:59:13.686Z,90.24
